Time;durP1;ratioP1;P1;durP2;ratioP2;P2;SDS_P1;SDS_P2;PMS_P1;PMS_P2;Temp;Humidity;BMP_temperature;BMP_pressure;BME280_temperature;BME280_humidity;BME280_pressure;Samples;Min_cycle;Max_cycle;Signal;HPM_P1;HPM_P2
2021/12/15 00:01:20;;;;;;;34.13;24.60;;;;;;;3.48;100.00;97064.09;5057001;28;24427;-78
2021/12/15 00:03:47;;;;;;;30.92;25.50;;;;;;;3.51;100.00;97055.53;5057141;28;24429;-78
2021/12/15 00:06:18;;;;;;;27.42;23.35;;;;;;;3.55;100.00;97059.72;5056303;28;24439;-77
2021/12/15 00:08:47;;;;;;;30.20;23.30;;;;;;;3.59;100.00;97061.38;5056398;28;24469;-78
2021/12/15 00:11:14;;;;;;;27.92;23.20;;;;;;;3.63;100.00;97063.03;5054682;28;24423;-78
2021/12/15 00:13:44;;;;;;;29.43;23.37;;;;;;;3.73;100.00;97061.19;5056676;28;24427;-78
2021/12/15 00:16:11;;;;;;;34.65;25.85;;;;;;;3.77;100.00;97058.53;5056229;28;24443;-78
2021/12/15 00:18:41;;;;;;;34.60;25.92;;;;;;;3.78;100.00;97051.69;5055427;28;24446;-78
2021/12/15 00:21:09;;;;;;;31.55;26.35;;;;;;;3.73;100.00;97054.34;5055520;28;24442;-78
2021/12/15 00:23:35;;;;;;;36.75;27.58;;;;;;;3.66;100.00;97059.56;5055814;28;24522;-78
2021/12/15 00:26:02;;;;;;;34.47;25.40;;;;;;;3.61;100.00;97063.06;5054685;28;24980;-78
2021/12/15 00:28:29;;;;;;;36.13;27.27;;;;;;;3.58;100.00;97062.25;5054950;28;24486;-77
2021/12/15 00:30:57;;;;;;;35.55;26.58;;;;;;;3.62;100.00;97059.63;5054561;28;24434;-78
2021/12/15 00:33:23;;;;;;;30.77;24.42;;;;;;;3.62;100.00;97064.75;5054782;28;24423;-78
2021/12/15 00:35:50;;;;;;;31.17;23.67;;;;;;;3.63;100.00;97063.91;5054298;28;24447;-78
2021/12/15 00:38:16;;;;;;;28.80;22.35;;;;;;;3.57;100.00;97079.34;5054196;28;24427;-76
2021/12/15 00:40:43;;;;;;;27.10;22.60;;;;;;;3.60;100.00;97075.91;5054495;28;24434;-76
2021/12/15 00:43:10;;;;;;;27.52;21.58;;;;;;;3.58;100.00;97075.91;5054203;28;24977;-78
2021/12/15 00:45:36;;;;;;;27.52;21.55;;;;;;;3.54;100.00;97073.41;5054066;28;24427;-77
2021/12/15 00:48:05;;;;;;;28.35;22.52;;;;;;;3.51;100.00;97074.28;5053969;28;24422;-76
2021/12/15 00:50:34;;;;;;;29.88;23.00;;;;;;;3.49;100.00;97070.94;5053843;28;24446;-78
2021/12/15 00:53:02;;;;;;;28.55;23.13;;;;;;;3.47;100.00;97082.91;5053014;28;24426;-76
2021/12/15 00:55:30;;;;;;;28.48;20.30;;;;;;;3.47;100.00;97080.34;5051844;28;24419;-77
2021/12/15 00:57:57;;;;;;;26.25;20.73;;;;;;;3.45;100.00;97083.78;5052359;28;24485;-75
2021/12/15 01:00:27;;;;;;;28.67;20.65;;;;;;;3.44;100.00;97082.94;5052000;28;24430;-76
2021/12/15 01:02:54;;;;;;;42.80;23.88;;;;;;;3.43;100.00;97083.81;5051603;28;24971;-76
2021/12/15 01:05:26;;;;;;;46.05;21.20;;;;;;;3.39;100.00;97082.16;5051517;28;24451;-77
2021/12/15 01:07:53;;;;;;;36.33;22.27;;;;;;;3.38;100.00;97072.78;5053144;28;24431;-77
2021/12/15 01:10:27;;;;;;;33.90;23.30;;;;;;;3.38;100.00;97067.66;5052603;28;24994;-77
2021/12/15 01:14:32;;;;;;;31.33;22.63;;;;;;;3.37;100.00;97076.19;5052808;28;24534;-77
2021/12/15 01:21:21;;;;;;;27.85;20.88;;;;;;;3.66;100.00;97074.94;5052446;28;24478;-77
2021/12/15 01:23:48;;;;;;;29.77;22.60;;;;;;;3.63;100.00;97071.59;5053382;28;24792;-77
2021/12/15 01:26:15;;;;;;;33.67;22.92;;;;;;;3.63;100.00;97075.84;5051398;28;24503;-76
2021/12/15 01:28:42;;;;;;;27.70;22.17;;;;;;;3.63;100.00;97063.03;5051601;28;24438;-76
2021/12/15 01:31:11;;;;;;;28.38;22.95;;;;;;;3.67;100.00;97074.06;5051812;28;24426;-76
2021/12/15 01:33:39;;;;;;;26.52;20.15;;;;;;;3.77;100.00;97075.63;5051207;28;24473;-76
2021/12/15 01:36:10;;;;;;;26.88;20.00;;;;;;;3.79;100.00;97073.91;5050924;28;24450;-76
2021/12/15 01:38:40;;;;;;;28.70;20.23;;;;;;;3.75;100.00;97075.66;5051227;28;24464;-76
2021/12/15 01:41:14;;;;;;;28.30;19.70;;;;;;;3.70;100.00;97079.16;5051230;28;25109;-76
2021/12/15 01:43:51;;;;;;;27.20;19.92;;;;;;;3.81;100.00;97077.28;5051219;28;24516;-76
2021/12/15 01:49:08;;;;;;;25.13;19.75;;;;;;;3.86;100.00;97086.59;5051026;28;24415;-77
2021/12/15 01:51:34;;;;;;;24.77;20.67;;;;;;;3.87;100.00;97084.88;5051161;28;24979;-76
2021/12/15 01:54:03;;;;;;;34.90;22.73;;;;;;;3.77;100.00;97081.59;5050973;28;24430;-76
2021/12/15 01:56:29;;;;;;;28.17;21.88;;;;;;;3.74;100.00;97093.63;5050322;28;24801;-76
2021/12/15 01:58:56;;;;;;;30.42;23.73;;;;;;;3.77;100.00;97098.69;5050907;28;24438;-76
2021/12/15 02:01:23;;;;;;;33.38;24.92;;;;;;;3.87;100.00;97087.44;5050740;28;24423;-76
2021/12/15 02:03:49;;;;;;;31.95;22.30;;;;;;;3.88;100.00;97094.25;5050527;28;24518;-76
2021/12/15 02:06:16;;;;;;;33.93;25.73;;;;;;;3.85;100.00;97092.56;5050619;28;24446;-76
2021/12/15 02:08:44;;;;;;;34.50;25.23;;;;;;;3.90;100.00;97091.69;5050832;28;24771;-75
2021/12/15 02:11:12;;;;;;;41.35;26.42;;;;;;;3.84;100.00;97095.19;5050957;28;24439;-76
2021/12/15 02:13:38;;;;;;;37.55;27.13;;;;;;;3.77;100.00;97088.44;5050617;28;24521;-75
2021/12/15 02:16:07;;;;;;;39.58;27.65;;;;;;;3.73;100.00;97084.25;5050155;28;24431;-76
2021/12/15 02:18:36;;;;;;;40.90;28.48;;;;;;;3.80;100.00;97098.66;5050374;28;24438;-76
2021/12/15 02:21:08;;;;;;;41.90;28.90;;;;;;;3.76;100.00;97094.44;5050273;28;24522;-76
2021/12/15 02:23:42;;;;;;;42.80;28.33;;;;;;;3.69;100.00;97087.72;5050817;28;24430;-76
2021/12/15 02:26:13;;;;;;;36.28;27.85;;;;;;;3.67;100.00;97084.31;5050292;28;24473;-76
2021/12/15 02:28:41;;;;;;;35.78;27.42;;;;;;;3.70;100.00;97086.84;5050503;28;24526;-76
2021/12/15 02:31:15;;;;;;;38.13;27.13;;;;;;;3.72;100.00;97090.25;5050132;28;24435;-76
2021/12/15 02:34:01;;;;;;;33.25;25.42;;;;;;;3.75;100.00;97090.19;5051103;28;24467;-76
2021/12/15 02:39:15;;;;;;;38.40;24.30;;;;;;;3.70;100.00;97090.25;5054358;28;24796;-76
2021/12/15 02:41:43;;;;;;;30.10;24.48;;;;;;;3.71;100.00;97085.97;5054507;28;24475;-76
2021/12/15 02:44:12;;;;;;;35.50;25.67;;;;;;;3.68;100.00;97084.31;5054414;28;24423;-76
2021/12/15 02:46:41;;;;;;;31.98;24.20;;;;;;;3.66;100.00;97085.19;5054331;28;24438;-76
2021/12/15 02:49:09;;;;;;;28.38;23.27;;;;;;;3.70;100.00;97081.72;5054328;28;24427;-76
2021/12/15 02:51:39;;;;;;;32.25;23.55;;;;;;;3.72;100.00;97085.97;5054034;28;24431;-76
2021/12/15 02:54:07;;;;;;;29.05;22.77;;;;;;;3.75;100.00;97090.19;5054364;28;24431;-76
2021/12/15 02:56:34;;;;;;;34.75;21.85;;;;;;;3.71;100.00;97078.28;5054132;28;24475;-76
2021/12/15 02:59:04;;;;;;;40.58;21.13;;;;;;;3.73;100.00;97084.25;5054300;28;24952;-76
2021/12/15 03:01:41;;;;;;;23.35;19.80;;;;;;;3.74;100.00;97081.63;5054172;28;24465;-76
2021/12/15 03:04:26;;;;;;;22.23;19.73;;;;;;;3.77;100.00;97085.88;5054067;28;24960;-75
2021/12/15 03:07:01;;;;;;;37.55;21.58;;;;;;;3.97;100.00;97086.44;5053940;28;24447;-77
2021/12/15 03:15:29;;;;;;;14.50;11.68;;;;;;;4.34;100.00;97088.41;5053809;28;24419;-78
2021/12/15 03:17:59;;;;;;;16.85;11.20;;;;;;;4.42;100.00;97091.69;5053953;28;24447;-76
2021/12/15 03:20:27;;;;;;;13.20;10.30;;;;;;;4.24;100.00;97087.69;5069514;22;24498;-72
2021/12/15 03:22:55;;;;;;;12.65;9.70;;;;;;;4.12;100.00;97090.47;5053336;28;24446;-73
2021/12/15 03:25:24;;;;;;;12.30;10.23;;;;;;;3.99;100.00;97101.78;5057030;28;24423;-73
2021/12/15 03:36:05;;;;;;;11.80;9.90;;;;;;;3.97;100.00;97094.13;5041955;28;24478;-73
2021/12/15 03:38:34;;;;;;;12.52;9.85;;;;;;;4.13;100.00;97087.88;5053419;28;24446;-72
2021/12/15 03:41:01;;;;;;;14.75;12.45;;;;;;;4.26;100.00;97093.63;5053231;28;24427;-72
2021/12/15 03:43:28;;;;;;;15.02;12.70;;;;;;;4.25;100.00;97088.53;5053157;28;24415;-74
2021/12/15 03:45:56;;;;;;;14.32;12.82;;;;;;;4.06;100.00;97096.53;5052480;28;24430;-73
2021/12/15 03:48:26;;;;;;;13.57;11.75;;;;;;;4.03;100.00;97096.56;5053325;28;24422;-73
2021/12/15 03:50:54;;;;;;;15.15;13.07;;;;;;;4.04;100.00;97097.41;5053121;28;24419;-73
2021/12/15 03:53:20;;;;;;;15.07;12.88;;;;;;;3.99;100.00;97096.66;5053101;28;24423;-73
2021/12/15 03:55:49;;;;;;;14.77;11.93;;;;;;;4.08;100.00;97101.66;5052738;28;24510;-73
2021/12/15 03:58:16;;;;;;;14.18;11.48;;;;;;;4.15;100.00;97098.09;5053958;28;24788;-73
2021/12/15 04:00:47;;;;;;;15.32;11.80;;;;;;;4.19;100.00;97102.34;5056489;28;24442;-73
2021/12/15 04:03:19;;;;;;;13.80;10.93;;;;;;;4.21;100.00;97103.13;5053242;28;24422;-73
2021/12/15 04:05:45;;;;;;;12.80;10.35;;;;;;;4.11;100.00;97107.56;5055185;28;24419;-73
2021/12/15 04:08:12;;;;;;;12.43;9.77;;;;;;;4.00;100.00;97096.63;5053981;28;24960;-73
2021/12/15 04:10:39;;;;;;;11.20;9.95;;;;;;;3.95;100.00;97102.72;5052608;28;24457;-73
2021/12/15 04:13:09;;;;;;;12.35;10.43;;;;;;;3.90;100.00;97112.19;5052484;28;24477;-73
2021/12/15 04:15:43;;;;;;;13.45;10.60;;;;;;;3.93;100.00;97114.69;5052878;28;24797;-73
2021/12/15 04:18:10;;;;;;;15.88;12.95;;;;;;;4.02;100.00;97115.41;5055819;28;24455;-73
2021/12/15 04:20:39;;;;;;;16.73;13.07;;;;;;;4.09;100.00;97111.88;5055577;28;24440;-72
2021/12/15 04:23:08;;;;;;;21.10;15.65;;;;;;;4.01;100.00;97112.88;5056417;28;24789;-73
2021/12/15 04:25:37;;;;;;;16.63;14.05;;;;;;;4.07;100.00;97118.72;5056489;28;24505;-73
2021/12/15 04:28:08;;;;;;;16.85;14.05;;;;;;;4.27;100.00;97115.88;5056683;28;24415;-73
2021/12/15 04:30:38;;;;;;;15.18;13.50;;;;;;;4.37;100.00;97119.09;5058681;28;24435;-73
2021/12/15 04:33:12;;;;;;;19.30;13.85;;;;;;;4.32;100.00;97120.91;5053970;28;24428;-72
2021/12/15 04:35:39;;;;;;;18.25;13.68;;;;;;;4.35;100.00;97115.75;5051694;28;24995;-72
2021/12/15 04:38:06;;;;;;;17.05;13.93;;;;;;;4.23;100.00;97118.50;5051959;28;24442;-73
2021/12/15 04:40:33;;;;;;;14.70;13.20;;;;;;;4.05;100.00;97120.50;5052295;28;24488;-73
2021/12/15 04:43:00;;;;;;;15.40;13.20;;;;;;;3.90;100.00;97120.72;5052211;28;24430;-73
2021/12/15 04:45:29;;;;;;;15.07;13.48;;;;;;;3.81;100.00;97123.41;5052272;28;24442;-73
2021/12/15 04:47:57;;;;;;;18.10;14.10;;;;;;;3.76;100.00;97117.50;5054946;28;24415;-72
2021/12/15 04:50:27;;;;;;;19.10;14.98;;;;;;;3.70;100.00;97113.31;5054362;28;25048;-73
2021/12/15 04:52:54;;;;;;;16.87;14.57;;;;;;;3.68;100.00;97115.06;5054551;28;24419;-73
2021/12/15 04:55:22;;;;;;;17.42;15.57;;;;;;;3.68;100.00;97117.63;5054476;28;24427;-73
2021/12/15 04:57:49;;;;;;;19.20;16.45;;;;;;;3.60;100.00;97114.31;5052812;28;24990;-73
2021/12/15 05:00:26;;;;;;;20.05;17.13;;;;;;;3.57;100.00;97117.78;5051699;28;24422;-73
2021/12/15 05:02:54;;;;;;;18.67;16.67;;;;;;;3.66;100.00;97110.81;5051504;28;24477;-73
2021/12/15 05:05:21;;;;;;;20.05;17.17;;;;;;;3.57;100.00;97110.09;5051346;28;24971;-73
2021/12/15 05:07:49;;;;;;;22.50;17.20;;;;;;;3.59;100.00;97103.22;5051658;28;24419;-72
2021/12/15 05:10:17;;;;;;;18.00;16.10;;;;;;;3.62;100.00;97104.88;5045537;28;24427;-73
2021/12/15 05:12:44;;;;;;;19.92;17.58;;;;;;;3.68;100.00;97121.91;5054791;28;24438;-73
2021/12/15 05:15:11;;;;;;;24.48;18.45;;;;;;;3.71;100.00;97121.84;5054185;28;24434;-73
2021/12/15 05:17:38;;;;;;;18.38;16.13;;;;;;;3.73;100.00;97123.53;5051231;28;24447;-73
2021/12/15 05:20:09;;;;;;;21.23;18.13;;;;;;;3.87;100.00;97124.16;5051236;28;24966;-73
2021/12/15 05:22:37;;;;;;;24.57;19.60;;;;;;;3.94;100.00;97124.94;5051114;28;24477;-73
2021/12/15 05:25:05;;;;;;;22.73;17.47;;;;;;;4.05;100.00;97133.31;5051479;28;24536;-73
2021/12/15 05:27:35;;;;;;;20.63;18.03;;;;;;;3.94;100.00;97135.19;5051512;28;24437;-73
2021/12/15 05:30:02;;;;;;;20.15;17.92;;;;;;;3.84;100.00;97131.91;5054887;28;24441;-73
2021/12/15 05:32:28;;;;;;;21.70;17.67;;;;;;;3.82;100.00;97136.22;5057953;28;24971;-73
2021/12/15 05:34:58;;;;;;;24.08;17.13;;;;;;;3.84;100.00;97133.63;5053186;28;24420;-73
2021/12/15 05:37:28;;;;;;;19.23;15.45;;;;;;;3.88;100.00;97135.25;5052964;28;24979;-73
2021/12/15 05:39:56;;;;;;;19.40;15.05;;;;;;;3.88;100.00;97136.09;5051089;28;24851;-73
2021/12/15 05:42:25;;;;;;;18.07;14.90;;;;;;;3.89;100.00;97136.94;5050832;28;24419;-73
2021/12/15 05:44:53;;;;;;;15.75;14.05;;;;;;;3.98;100.00;97136.00;5050625;28;24549;-72
2021/12/15 05:47:20;;;;;;;17.10;14.83;;;;;;;3.99;100.00;97137.66;5050778;28;24422;-72
2021/12/15 05:49:48;;;;;;;19.25;14.90;;;;;;;4.00;100.00;97136.78;5052586;28;24450;-73
2021/12/15 05:52:14;;;;;;;16.98;15.20;;;;;;;3.86;100.00;97137.88;5052727;28;24956;-72
2021/12/15 05:54:42;;;;;;;16.90;14.70;;;;;;;3.80;100.00;97137.94;5052269;28;24426;-73
2021/12/15 05:57:09;;;;;;;16.80;14.40;;;;;;;3.78;100.00;97137.13;5052106;28;24419;-73
2021/12/15 05:59:36;;;;;;;17.67;14.07;;;;;;;3.85;100.00;97143.84;5050790;28;24430;-72
2021/12/15 06:02:03;;;;;;;13.73;12.32;;;;;;;3.85;100.00;97138.72;5051689;28;24430;-73
2021/12/15 06:04:29;;;;;;;17.50;13.00;;;;;;;3.78;100.00;97147.38;5050957;28;24840;-73
2021/12/15 06:06:56;;;;;;;13.00;11.68;;;;;;;3.81;100.00;97149.88;5050257;28;24426;-72
2021/12/15 06:09:22;;;;;;;14.02;12.48;;;;;;;3.84;100.00;97149.84;5050520;28;24485;-73
2021/12/15 06:11:53;;;;;;;11.23;10.13;;;;;;;3.98;100.00;97153.94;5050345;28;24427;-73
2021/12/15 06:14:23;;;;;;;11.45;10.13;;;;;;;3.98;100.00;97159.91;5050653;28;24501;-73
2021/12/15 06:16:50;;;;;;;10.35;9.25;;;;;;;4.00;100.00;97157.31;5050263;28;24431;-73
2021/12/15 06:19:17;;;;;;;11.65;9.20;;;;;;;3.91;100.00;97158.28;5050395;28;24442;-73
2021/12/15 06:21:43;;;;;;;10.80;9.52;;;;;;;3.81;100.00;97162.69;5050301;28;24777;-73
2021/12/15 06:24:10;;;;;;;9.93;8.80;;;;;;;3.78;100.00;97161.88;5052222;28;24415;-72
2021/12/15 06:26:36;;;;;;;10.73;9.52;;;;;;;3.70;100.00;97159.44;5052158;28;24419;-73
2021/12/15 06:29:04;;;;;;;10.23;9.03;;;;;;;3.69;100.00;97162.03;5041031;28;24443;-74
2021/12/15 06:31:31;;;;;;;13.52;12.13;;;;;;;3.79;100.00;97166.16;5042900;28;24444;-74
2021/12/15 06:33:57;;;;;;;15.68;10.95;;;;;;;3.78;100.00;97170.44;5050219;28;24446;-75
2021/12/15 06:36:24;;;;;;;13.10;11.82;;;;;;;3.72;100.00;97173.06;5050082;28;24797;-74
2021/12/15 06:38:53;;;;;;;13.57;12.17;;;;;;;3.69;100.00;97167.16;5050189;28;24490;-75
2021/12/15 06:41:20;;;;;;;13.73;12.33;;;;;;;3.63;100.00;97170.63;5050181;28;24956;-75
2021/12/15 06:43:51;;;;;;;14.60;12.88;;;;;;;3.60;100.00;97171.53;5050355;28;24966;-75
2021/12/15 07:00:11;;;;;;;13.80;11.82;;;;;;;3.58;100.00;97187.78;4979429;28;24425;-73
2021/12/15 07:02:40;;;;;;;14.45;11.80;;;;;;;3.61;100.00;97187.75;5018103;28;24446;-73
2021/12/15 07:05:08;;;;;;;14.05;11.20;;;;;;;3.66;100.00;97188.53;5030110;28;24794;-74
2021/12/15 07:07:35;;;;;;;13.52;12.13;;;;;;;3.66;100.00;97187.69;5030587;28;24466;-73
2021/12/15 07:10:02;;;;;;;13.93;12.20;;;;;;;3.62;100.00;97174.91;5030071;28;24427;-73
2021/12/15 07:12:28;;;;;;;12.20;11.07;;;;;;;3.64;100.00;97188.56;5029968;28;24478;-73
2021/12/15 07:14:54;;;;;;;14.07;11.07;;;;;;;3.70;100.00;97195.28;5033134;28;24434;-73
2021/12/15 07:17:24;;;;;;;13.85;11.20;;;;;;;3.69;100.00;97196.19;5049377;28;24415;-73
2021/12/15 07:20:07;;;;;;;10.27;9.27;;;;;;;3.72;100.00;97205.53;5050280;28;25021;-72
2021/12/15 07:22:43;;;;;;;9.82;8.93;;;;;;;3.73;100.00;97212.34;5053045;28;24427;-72
2021/12/15 07:25:11;;;;;;;9.03;7.70;;;;;;;3.91;100.00;97213.84;5053075;28;24423;-72
2021/12/15 07:27:38;;;;;;;7.57;6.80;;;;;;;3.87;100.00;97211.31;5052624;28;24511;-73
2021/12/15 07:30:07;;;;;;;8.38;7.57;;;;;;;3.80;100.00;97214.81;5052797;28;24437;-73
2021/12/15 07:32:33;;;;;;;8.77;7.97;;;;;;;3.76;100.00;97222.56;5052796;28;24434;-72
2021/12/15 07:35:01;;;;;;;9.32;7.60;;;;;;;3.76;100.00;97218.28;5052515;28;24419;-74
2021/12/15 07:37:28;;;;;;;8.82;7.95;;;;;;;3.78;100.00;97231.94;5053322;28;24415;-74
2021/12/15 07:39:58;;;;;;;9.00;8.10;;;;;;;3.79;100.00;97230.22;5053321;28;24896;-74
2021/12/15 07:42:32;;;;;;;8.80;7.95;;;;;;;3.82;100.00;97222.47;5053502;28;24430;-72
2021/12/15 07:44:59;;;;;;;9.25;7.72;;;;;;;3.76;100.00;97230.25;5053013;28;24846;-72
2021/12/15 07:47:26;;;;;;;9.68;8.68;;;;;;;3.85;100.00;97237.81;5053035;28;24831;-73
2021/12/15 07:49:52;;;;;;;9.82;8.82;;;;;;;3.82;100.00;97237.84;5053331;28;24948;-73
2021/12/15 07:52:21;;;;;;;11.55;10.43;;;;;;;4.04;100.00;97239.31;5053212;28;24442;-74
2021/12/15 07:54:47;;;;;;;12.60;11.25;;;;;;;3.95;100.00;97236.84;5053115;28;24424;-75
2021/12/15 07:57:18;;;;;;;13.50;11.07;;;;;;;3.88;100.00;97238.63;5052376;28;24789;-75
2021/12/15 07:59:44;;;;;;;11.75;10.55;;;;;;;3.85;100.00;97243.78;5053145;28;24450;-75
2021/12/15 08:02:11;;;;;;;12.48;10.35;;;;;;;3.97;100.00;97245.38;5052596;28;24469;-76
2021/12/15 08:04:37;;;;;;;11.68;10.52;;;;;;;3.87;100.00;97242.06;5052879;28;24420;-76
2021/12/15 08:07:04;;;;;;;14.02;12.15;;;;;;;3.85;100.00;97241.22;5052832;28;24438;-74
2021/12/15 08:09:32;;;;;;;13.10;11.80;;;;;;;3.80;100.00;97252.41;5053040;28;24998;-75
2021/12/15 08:11:58;;;;;;;17.58;15.63;;;;;;;3.80;100.00;97249.84;5052795;28;24967;-72
2021/12/15 08:14:25;;;;;;;16.63;14.82;;;;;;;3.72;100.00;97254.22;5053115;28;24411;-73
2021/12/15 08:16:52;;;;;;;15.90;13.88;;;;;;;3.68;100.00;97250.00;5052791;28;24979;-74
2021/12/15 08:19:19;;;;;;;15.18;13.60;;;;;;;3.67;100.00;97243.16;5053126;28;24835;-73
2021/12/15 08:21:48;;;;;;;14.90;13.45;;;;;;;3.78;100.00;97247.31;5052734;28;24420;-72
2021/12/15 08:24:15;;;;;;;10.70;9.30;;;;;;;3.78;100.00;97252.44;5036426;28;24428;-74
2021/12/15 08:26:43;;;;;;;11.15;10.15;;;;;;;3.82;100.00;97253.22;5032511;28;24489;-74
2021/12/15 08:29:10;;;;;;;13.52;12.13;;;;;;;3.83;100.00;97266.03;5050426;28;24423;-73
2021/12/15 08:31:36;;;;;;;12.68;11.40;;;;;;;3.84;100.00;97259.19;5050475;28;24435;-74
2021/12/15 08:34:03;;;;;;;12.43;11.23;;;;;;;3.81;100.00;97261.78;5051542;28;24501;-73
2021/12/15 08:36:30;;;;;;;11.73;10.52;;;;;;;3.83;100.00;97260.91;5051275;28;24430;-72
2021/12/15 08:38:57;;;;;;;13.02;11.63;;;;;;;3.79;100.00;97263.53;5051209;28;24439;-73
2021/12/15 08:41:25;;;;;;;12.83;11.53;;;;;;;3.86;100.00;97265.16;5051634;28;24444;-76
2021/12/15 08:43:54;;;;;;;9.50;8.38;;;;;;;4.03;100.00;97270.91;5051549;28;24421;-73
2021/12/15 08:46:23;;;;;;;8.48;7.20;;;;;;;4.11;100.00;97270.81;5051381;28;24427;-73
2021/12/15 08:48:50;;;;;;;7.50;6.80;;;;;;;4.25;100.00;97266.34;5051672;28;24411;-74
2021/12/15 08:51:18;;;;;;;9.30;7.22;;;;;;;4.16;100.00;97269.03;5051350;28;24435;-74
2021/12/15 08:53:46;;;;;;;11.40;8.32;;;;;;;4.11;100.00;97274.22;5051777;28;24493;-74
2021/12/15 08:56:14;;;;;;;10.85;8.85;;;;;;;4.06;100.00;97275.16;5050484;28;24971;-74
2021/12/15 08:58:40;;;;;;;8.35;7.00;;;;;;;4.17;100.00;97269.88;5051006;28;24563;-75
2021/12/15 09:01:09;;;;;;;7.60;6.90;;;;;;;4.20;100.00;97270.69;5051543;28;25018;-74
2021/12/15 09:03:36;;;;;;;8.52;7.72;;;;;;;4.26;100.00;97265.47;5052177;28;24434;-75
2021/12/15 09:06:03;;;;;;;10.77;9.68;;;;;;;4.19;100.00;97269.00;5051589;28;24487;-73
2021/12/15 09:08:30;;;;;;;13.50;10.10;;;;;;;4.08;100.00;97268.31;5051395;28;24435;-74
2021/12/15 09:11:00;;;;;;;9.75;8.85;;;;;;;4.23;100.00;97267.25;5051848;28;24419;-73
2021/12/15 09:13:30;;;;;;;10.77;9.48;;;;;;;4.27;100.00;97269.75;5051865;28;24423;-74
2021/12/15 09:15:58;;;;;;;11.68;10.50;;;;;;;4.24;100.00;97272.34;5051135;28;24458;-74
2021/12/15 09:18:26;;;;;;;11.52;10.27;;;;;;;4.18;100.00;97276.69;5051513;28;24443;-74
2021/12/15 09:20:52;;;;;;;12.50;11.27;;;;;;;4.07;100.00;97281.97;5014797;22;1709452;-73
2021/12/15 09:23:19;;;;;;;14.02;11.70;;;;;;;4.01;100.00;97279.50;5051985;28;24454;-74
2021/12/15 09:25:47;;;;;;;11.27;10.10;;;;;;;3.92;100.00;97283.00;5051886;28;24819;-73
2021/12/15 09:28:15;;;;;;;11.93;10.77;;;;;;;4.02;100.00;97282.03;5051660;28;24435;-73
2021/12/15 09:30:46;;;;;;;10.87;9.87;;;;;;;4.10;100.00;97287.06;5051311;28;24497;-73
2021/12/15 09:33:14;;;;;;;11.40;10.30;;;;;;;4.23;100.00;97288.63;5051269;28;24585;-72
2021/12/15 09:35:42;;;;;;;11.77;10.63;;;;;;;4.23;100.00;97292.91;5050893;28;24764;-73
2021/12/15 09:38:09;;;;;;;13.07;11.32;;;;;;;4.39;100.00;97290.97;5051267;28;24422;-73
2021/12/15 09:40:36;;;;;;;12.40;11.18;;;;;;;4.26;100.00;97292.84;5051157;28;25010;-73
2021/12/15 09:43:04;;;;;;;12.70;11.40;;;;;;;4.19;100.00;97297.22;5050750;28;24526;-73
2021/12/15 09:45:40;;;;;;;12.98;11.65;;;;;;;4.17;100.00;97296.38;5049685;28;24496;-73
2021/12/15 09:57:07;;;;;;;15.48;13.20;;;;;;;4.32;100.00;97306.44;5049334;28;24515;-74
2021/12/15 10:02:34;;;;;;;15.35;13.00;;;;;;;4.46;100.00;97292.56;5025320;28;24567;-73
2021/12/15 10:05:12;;;;;;;13.30;12.00;;;;;;;4.37;100.00;97303.78;5030778;28;24424;-73
2021/12/15 10:10:46;;;;;;;14.57;13.07;;;;;;;4.30;100.00;97291.91;5021241;28;24477;-73
2021/12/15 10:18:53;;;;;;;12.93;11.65;;;;;;;4.08;100.00;97284.53;5019218;28;24472;-73
2021/12/15 10:21:23;;;;;;;11.75;10.65;;;;;;;4.17;100.00;97283.56;5021888;28;24444;-74
2021/12/15 10:23:51;;;;;;;12.88;11.43;;;;;;;4.12;100.00;97287.91;5019024;28;24440;-73
2021/12/15 10:26:18;;;;;;;14.18;11.05;;;;;;;4.29;100.00;97283.38;5021979;28;24439;-73
2021/12/15 10:28:49;;;;;;;13.00;11.23;;;;;;;4.32;100.00;97287.63;5029824;28;24995;-73
2021/12/15 10:31:17;;;;;;;10.52;9.52;;;;;;;4.13;100.00;97289.59;5030619;28;24474;-73
2021/12/15 10:33:46;;;;;;;11.93;10.73;;;;;;;4.29;100.00;97290.22;5030918;28;24423;-74
2021/12/15 10:36:15;;;;;;;11.90;10.80;;;;;;;4.04;100.00;97288.00;5030075;28;24980;-75
2021/12/15 10:38:45;;;;;;;12.55;11.13;;;;;;;4.01;100.00;97279.50;5029478;28;24502;-74
2021/12/15 10:41:18;;;;;;;12.30;11.05;;;;;;;4.16;100.00;97283.59;5030864;28;24535;-72
2021/12/15 10:43:48;;;;;;;14.93;12.65;;;;;;;4.07;100.00;97281.97;5030660;28;24419;-74
2021/12/15 10:46:17;;;;;;;12.45;10.80;;;;;;;4.16;100.00;97281.03;5030006;28;25012;-73
2021/12/15 10:48:48;;;;;;;11.18;10.07;;;;;;;4.24;100.00;97281.75;5030457;28;24431;-73
2021/12/15 10:51:35;;;;;;;11.38;10.05;;;;;;;4.27;100.00;97274.03;5030498;28;24759;-73
2021/12/15 10:54:05;;;;;;;10.80;9.55;;;;;;;4.24;100.00;97272.34;5030381;28;24419;-73
2021/12/15 10:56:36;;;;;;;10.03;9.10;;;;;;;4.10;100.00;97267.41;5033505;28;24423;-73
2021/12/15 10:59:07;;;;;;;9.63;8.70;;;;;;;3.90;100.00;97274.50;5033625;28;24447;-74
2021/12/15 11:01:45;;;;;;;9.05;8.15;;;;;;;3.96;100.00;97266.72;5034092;28;24420;-75
2021/12/15 11:04:33;;;;;;;9.45;8.07;;;;;;;4.02;100.00;97271.78;5034341;28;24817;-75
2021/12/15 11:07:15;;;;;;;8.40;7.63;;;;;;;3.91;100.00;97265.94;5033766;28;24424;-74
2021/12/15 11:09:45;;;;;;;7.18;6.57;;;;;;;3.99;100.00;97274.38;5033657;28;24494;-75
2021/12/15 11:12:17;;;;;;;6.72;6.13;;;;;;;3.74;100.00;97267.84;5034068;28;24463;-75
2021/12/15 11:14:46;;;;;;;7.50;6.80;;;;;;;3.73;100.00;97263.59;5034100;28;24420;-75
2021/12/15 11:17:16;;;;;;;7.10;6.50;;;;;;;3.76;100.00;97263.56;5033802;28;24416;-75
2021/12/15 11:19:55;;;;;;;7.10;6.50;;;;;;;3.73;100.00;97266.16;5033811;28;24471;-74
2021/12/15 11:22:36;;;;;;;8.45;6.57;;;;;;;3.65;100.00;97263.69;5033483;28;24841;-75
2021/12/15 11:25:06;;;;;;;11.52;7.68;;;;;;;3.82;100.00;97256.66;5033602;28;24427;-75
2021/12/15 11:27:34;;;;;;;7.27;6.67;;;;;;;3.78;100.00;97257.56;5033478;28;24540;-74
2021/12/15 11:30:01;;;;;;;6.75;5.97;;;;;;;3.82;100.00;97256.66;5033505;28;24945;-74
2021/12/15 11:32:39;;;;;;;8.88;6.22;;;;;;;4.17;100.00;97249.38;5033230;28;24474;-75
2021/12/15 11:35:07;;;;;;;8.02;4.85;;;;;;;4.26;100.00;97254.34;5033571;28;24415;-76
2021/12/15 11:37:48;;;;;;;4.65;4.15;;;;;;;4.31;100.00;97255.16;5033302;28;24959;-74
2021/12/15 11:40:16;;;;;;;5.03;4.53;;;;;;;4.16;100.00;97245.13;5033702;28;24542;-74
2021/12/15 11:42:44;;;;;;;5.60;4.80;;;;;;;3.93;100.00;97253.09;5033145;28;24424;-74
2021/12/15 11:45:13;;;;;;;6.70;5.07;;;;;;;3.78;100.00;97247.31;5032678;28;24431;-74
2021/12/15 11:47:40;;;;;;;5.70;4.95;;;;;;;3.86;100.00;97249.78;5033363;28;24515;-74
2021/12/15 11:50:10;;;;;;;5.90;5.00;;;;;;;3.80;100.00;97245.56;5033322;28;24462;-74
2021/12/15 11:52:42;;;;;;;4.90;4.50;;;;;;;3.75;100.00;97238.81;5033982;28;24432;-74
2021/12/15 11:55:23;;;;;;;5.40;4.90;;;;;;;3.72;100.00;97234.56;5033590;28;24478;-73
2021/12/15 11:57:51;;;;;;;5.00;4.50;;;;;;;3.76;100.00;97227.69;5033988;28;24774;-74
2021/12/15 12:00:20;;;;;;;5.13;4.53;;;;;;;3.92;100.00;97234.31;5033769;28;24462;-73
2021/12/15 12:02:51;;;;;;;4.88;4.45;;;;;;;4.12;100.00;97232.34;5033274;28;24416;-73
2021/12/15 12:05:20;;;;;;;12.20;4.80;;;;;;;4.22;100.00;97233.03;5032780;28;25047;-73
2021/12/15 12:07:48;;;;;;;5.93;4.20;;;;;;;4.16;100.00;97234.88;5032878;28;24507;-74
2021/12/15 12:10:22;;;;;;;4.88;4.40;;;;;;;4.05;100.00;97228.16;5032854;28;24438;-73
2021/12/15 12:12:56;;;;;;;5.20;3.90;;;;;;;3.95;100.00;97234.28;5032702;28;24809;-73
2021/12/15 12:15:26;;;;;;;4.47;4.07;;;;;;;3.77;100.00;97234.50;5033051;28;24531;-74
2021/12/15 12:17:56;;;;;;;7.18;4.20;;;;;;;3.91;100.00;97234.34;5033517;28;24439;-74
2021/12/15 12:20:26;;;;;;;4.70;4.30;;;;;;;4.00;100.00;97217.09;5032557;28;24447;-74
2021/12/15 12:22:55;;;;;;;5.13;4.63;;;;;;;3.63;100.00;97214.19;5032903;28;24482;-74
2021/12/15 12:25:25;;;;;;;7.78;4.68;;;;;;;3.66;100.00;97211.59;5032761;28;25055;-74
2021/12/15 12:27:55;;;;;;;4.40;4.05;;;;;;;3.74;100.00;97206.34;5032898;28;24438;-74
2021/12/15 12:30:24;;;;;;;6.22;4.93;;;;;;;3.82;100.00;97204.53;5033188;28;24482;-74